Time;durP1;ratioP1;P1;durP2;ratioP2;P2;SDS_P1;SDS_P2;PMS_P1;PMS_P2;Temp;Humidity;BMP_temperature;BMP_pressure;BME280_temperature;BME280_humidity;BME280_pressure;Samples;Min_cycle;Max_cycle;Signal;HPM_P1;HPM_P2
2021/12/08 00:01:05;;;;;;;141.32;53.53;;;0.50;99.90;;;0.29;67.22;98398.81;6040852;23;20023;-81
2021/12/08 00:03:33;;;;;;;130.77;45.03;;;0.50;99.90;;;0.27;67.55;98403.53;6050103;23;20094;-81
2021/12/08 00:05:59;;;;;;;120.30;40.05;;;0.40;99.90;;;0.37;67.73;98403.88;6040969;23;20455;-80
2021/12/08 00:08:29;;;;;;;107.72;39.20;;;0.40;99.90;;;0.39;67.29;98399.13;6040712;23;20695;-80
2021/12/08 00:13:34;;;;;;;131.43;46.17;;;0.50;99.90;;;0.34;67.54;98412.31;6063136;23;20095;-79
2021/12/08 00:16:06;;;;;;;111.40;37.08;;;0.40;99.90;;;0.33;67.46;98416.84;6049937;23;20105;-80
2021/12/08 00:18:35;;;;;;;105.20;39.10;;;0.40;99.90;;;0.30;67.12;98417.25;6027788;23;20168;-80
2021/12/08 00:21:05;;;;;;;120.18;40.30;;;0.40;99.90;;;0.30;67.64;98416.44;6041567;23;20078;-80
2021/12/08 00:23:31;;;;;;;135.25;43.05;;;0.40;99.90;;;0.31;67.86;98413.56;6041542;23;20022;-80
2021/12/08 00:25:57;;;;;;;121.10;38.13;;;0.40;99.90;;;0.31;67.04;98426.91;6041557;23;20022;-81
2021/12/08 00:28:24;;;;;;;140.63;44.25;;;0.40;99.90;;;0.29;67.17;98417.50;6040767;23;20042;-80
2021/12/08 00:30:56;;;;;;;133.80;47.03;;;0.30;99.90;;;0.29;67.53;98425.50;6017847;23;20030;-80
2021/12/08 00:33:23;;;;;;;142.00;40.00;;;0.40;99.90;;;0.32;67.19;98425.06;6051053;23;20026;-80
2021/12/08 00:35:51;;;;;;;117.55;37.38;;;0.40;99.90;;;0.27;67.82;98419.53;6039637;23;20545;-81
2021/12/08 00:38:17;;;;;;;122.18;39.13;;;0.30;99.90;;;0.24;67.98;98409.31;6041111;23;20101;-80
2021/12/08 00:40:44;;;;;;;118.38;39.58;;;0.40;99.90;;;0.28;68.13;98415.84;6063980;23;20796;-80
2021/12/08 00:43:10;;;;;;;107.10;36.60;;;0.30;99.90;;;0.31;68.18;98412.75;6040230;23;20034;-80
2021/12/08 00:45:36;;;;;;;117.50;40.17;;;0.40;99.90;;;0.30;67.97;98409.25;6041373;23;20355;-81
2021/12/08 00:48:03;;;;;;;130.48;39.45;;;0.40;99.90;;;0.30;67.68;98413.78;6041805;23;20023;-80
2021/12/08 00:50:33;;;;;;;121.50;39.17;;;0.50;99.90;;;0.27;67.60;98424.88;6016889;23;20594;-80
2021/12/08 00:53:00;;;;;;;118.93;39.45;;;0.40;99.90;;;0.28;67.53;98427.34;6041697;23;20019;-81
2021/12/08 00:55:27;;;;;;;105.53;36.97;;;0.40;99.90;;;0.33;67.37;98429.34;6041924;23;20049;-81
2021/12/08 00:57:54;;;;;;;116.07;35.85;;;0.40;99.90;;;0.34;67.66;98425.66;6040956;23;20022;-81
2021/12/08 01:00:32;;;;;;;111.50;38.03;;;0.40;99.90;;;0.35;67.96;98425.41;6018252;23;20506;-80
2021/12/08 01:02:59;;;;;;;124.75;38.17;;;0.40;99.90;;;0.41;67.74;98426.44;6052488;23;20090;-81
2021/12/08 01:05:30;;;;;;;118.53;39.95;;;0.40;99.90;;;0.45;67.44;98422.28;6064713;23;20339;-81
2021/12/08 01:07:56;;;;;;;129.55;42.70;;;0.50;99.90;;;0.43;67.40;98421.66;6051000;23;20425;-81
2021/12/08 01:10:25;;;;;;;140.50;44.50;;;0.50;99.90;;;0.43;67.56;98419.00;6041292;23;20094;-80
2021/12/08 01:12:51;;;;;;;120.68;37.75;;;0.50;99.90;;;0.38;67.21;98425.00;6042047;23;20094;-81
2021/12/08 01:15:17;;;;;;;110.55;36.05;;;0.50;99.90;;;0.34;67.16;98418.47;6017486;23;20071;-81
2021/12/08 01:17:44;;;;;;;171.77;59.80;;;0.50;99.90;;;0.33;67.68;98422.19;6041519;23;20336;-81
2021/12/08 01:20:12;;;;;;;114.18;35.33;;;0.50;99.90;;;0.33;67.26;98418.66;6040801;23;20140;-81
2021/12/08 01:22:38;;;;;;;152.35;49.20;;;0.50;99.90;;;0.29;67.19;98430.81;6064892;23;20442;-81
2021/12/08 01:25:05;;;;;;;119.97;39.08;;;0.50;99.90;;;0.24;67.43;98428.00;6043454;23;20364;-80
2021/12/08 01:27:32;;;;;;;127.72;39.47;;;0.40;99.90;;;0.17;67.46;98428.84;6020220;23;20022;-80
2021/12/08 01:29:58;;;;;;;120.82;35.50;;;0.40;99.90;;;0.11;67.97;98426.22;6044000;23;20048;-80
2021/12/08 01:32:24;;;;;;;115.80;37.60;;;0.40;99.90;;;0.10;67.87;98421.91;6043039;23;20090;-80
2021/12/08 01:34:53;;;;;;;123.38;39.90;;;0.30;99.90;;;0.11;68.12;98420.91;6019472;23;20025;-80
2021/12/08 01:37:20;;;;;;;112.78;37.03;;;0.30;99.90;;;0.10;67.95;98419.25;6041788;23;20046;-80
2021/12/08 01:39:47;;;;;;;133.20;36.05;;;0.20;99.90;;;0.14;68.10;98405.25;6043329;23;20019;-80
2021/12/08 01:42:17;;;;;;;177.73;61.08;;;0.20;99.90;;;0.16;67.79;98397.88;6042891;23;20029;-81
2021/12/08 01:47:29;;;;;;;133.25;37.67;;;0.30;99.90;;;0.15;67.87;98395.41;6057430;23;20050;-81
2021/12/08 01:49:55;;;;;;;118.68;37.53;;;0.30;99.90;;;0.14;68.18;98394.59;6021387;23;20027;-80
2021/12/08 01:52:21;;;;;;;127.07;37.47;;;0.20;99.90;;;0.10;68.05;98393.41;6044917;23;20443;-80
2021/12/08 01:54:47;;;;;;;120.72;36.30;;;0.20;99.90;;;0.11;67.80;98388.88;6044558;23;20102;-80
2021/12/08 01:57:13;;;;;;;118.32;36.35;;;0.20;99.90;;;0.10;67.87;98382.75;6044495;23;20106;-81
2021/12/08 01:59:39;;;;;;;129.85;40.25;;;0.20;99.90;;;0.05;67.63;98398.56;6068060;23;20015;-81
2021/12/08 02:02:05;;;;;;;89.60;30.98;;;0.20;99.90;;;0.07;67.50;98398.34;6020949;23;20039;-81
2021/12/08 02:04:31;;;;;;;81.22;30.95;;;0.20;99.90;;;0.06;67.43;98391.38;6020801;23;20082;-81
2021/12/08 02:06:58;;;;;;;104.88;33.80;;;0.10;99.90;;;-0.01;67.09;98386.09;6043531;23;20043;-81
2021/12/08 02:09:24;;;;;;;90.35;31.15;;;0.10;99.90;;;0.01;67.22;98376.03;6043161;23;20035;-81
2021/12/08 02:11:54;;;;;;;95.40;29.08;;;0.10;99.90;;;-0.04;66.88;98360.66;6043391;23;20367;-81
2021/12/08 02:14:20;;;;;;;109.97;37.03;;;0.10;99.90;;;-0.03;67.24;98367.63;6043916;23;20026;-80
2021/12/08 02:16:47;;;;;;;127.63;36.53;;;0.10;99.90;;;-0.03;67.25;98356.97;6067289;23;20386;-81
2021/12/08 02:19:14;;;;;;;107.53;32.95;;;0.10;99.90;;;-0.06;67.32;98361.91;6041592;23;20023;-81
2021/12/08 02:21:41;;;;;;;128.70;39.03;;;0.10;99.90;;;-0.14;67.25;98364.84;6042199;23;20023;-80
2021/12/08 02:24:10;;;;;;;112.85;41.85;;;0.10;99.90;;;-0.07;67.34;98363.78;6066575;23;20102;-81
2021/12/08 02:26:37;;;;;;;90.78;31.88;;;0.00;99.90;;;-0.08;66.86;98354.13;6042019;23;20050;-80
2021/12/08 02:29:10;;;;;;;118.15;37.78;;;0.00;99.90;;;-0.10;66.84;98355.38;6042182;23;20030;-80
2021/12/08 02:31:49;;;;;;;90.00;34.45;;;-0.10;99.90;;;-0.11;66.88;98364.41;6075145;23;20042;-81
2021/12/08 02:48:04;;;;;;;97.95;32.15;;;-0.20;99.90;;;-0.39;66.39;98368.28;6074382;23;20196;-81
2021/12/08 02:50:38;;;;;;;121.00;40.85;;;-0.30;99.90;;;-0.40;67.09;98366.66;6039579;23;20460;-81
2021/12/08 02:53:05;;;;;;;89.13;29.88;;;-0.40;99.90;;;-0.41;66.97;98348.19;6050258;23;20427;-80
2021/12/08 02:55:32;;;;;;;80.93;29.75;;;-0.40;99.90;;;-0.40;67.02;98345.31;6040273;23;20023;-80
2021/12/08 02:58:01;;;;;;;95.88;33.95;;;-0.40;99.90;;;-0.45;67.11;98337.16;6040263;23;20046;-81
2021/12/08 03:00:29;;;;;;;94.75;28.92;;;-0.50;99.90;;;-0.44;66.98;98333.44;6039661;23;20019;-81
2021/12/08 03:02:58;;;;;;;79.30;29.80;;;-0.40;99.90;;;-0.45;67.27;98326.50;6040285;23;20097;-81
2021/12/08 03:05:26;;;;;;;90.25;32.33;;;-0.50;99.90;;;-0.40;67.35;98324.00;6063517;23;20029;-80
2021/12/08 03:07:54;;;;;;;111.53;35.00;;;-0.50;99.90;;;-0.47;67.35;98331.22;6016949;23;20540;-81
2021/12/08 03:10:25;;;;;;;93.85;31.77;;;-0.50;99.90;;;-0.54;67.34;98330.44;6040340;23;20354;-81
2021/12/08 03:12:52;;;;;;;91.78;33.05;;;-0.50;99.90;;;-0.59;67.66;98332.91;6049593;23;20023;-81
2021/12/08 03:15:20;;;;;;;135.98;38.75;;;-0.50;99.90;;;-0.60;67.68;98342.75;6038972;23;20556;-81
2021/12/08 03:17:46;;;;;;;85.65;31.42;;;-0.60;99.90;;;-0.56;67.60;98336.00;6040634;23;20320;-81
2021/12/08 03:20:15;;;;;;;268.48;84.97;;;-0.50;99.90;;;-0.58;67.50;98331.91;6065089;23;21138;-80
2021/12/08 03:22:47;;;;;;;84.10;29.42;;;-0.50;99.90;;;-0.61;67.33;98333.16;6049666;23;20407;-80
2021/12/08 03:25:17;;;;;;;118.53;37.83;;;-0.50;99.90;;;-0.64;67.31;98332.75;6016256;23;20149;-81
2021/12/08 03:28:05;;;;;;;75.38;28.10;;;-0.60;99.90;;;-0.62;67.62;98341.34;6038509;23;20018;-80
2021/12/08 03:30:36;;;;;;;75.25;28.05;;;-0.60;99.90;;;-0.64;67.67;98338.88;6062501;23;20109;-80
2021/12/08 03:33:05;;;;;;;87.72;32.10;;;-0.60;99.90;;;-0.59;67.43;98338.25;6049583;23;20019;-80
2021/12/08 03:35:31;;;;;;;98.32;36.35;;;-0.60;99.90;;;-0.58;67.47;98345.22;6038006;23;20025;-80
2021/12/08 03:37:58;;;;;;;85.10;29.10;;;-0.60;99.90;;;-0.55;67.22;98332.28;6037624;23;20410;-80
2021/12/08 03:40:25;;;;;;;105.55;35.78;;;-0.60;99.90;;;-0.54;67.18;98333.09;6062066;23;20465;-80
2021/12/08 03:42:53;;;;;;;111.75;40.28;;;-0.50;99.90;;;-0.63;67.08;98326.41;6037260;23;20019;-81
2021/12/08 03:45:32;;;;;;;80.35;28.42;;;-0.50;99.90;;;-0.66;67.47;98324.97;6038389;23;20025;-80
2021/12/08 03:48:03;;;;;;;76.15;29.65;;;-0.60;99.90;;;-0.61;67.48;98305.66;6073754;23;20093;-80
2021/12/08 03:50:36;;;;;;;72.20;26.73;;;-0.50;99.90;;;-0.69;67.40;98320.06;6049233;23;20042;-80
2021/12/08 03:53:03;;;;;;;89.65;28.90;;;-0.60;99.90;;;-0.72;67.76;98297.34;6024520;23;20094;-80
2021/12/08 03:55:29;;;;;;;68.10;26.23;;;-0.60;99.90;;;-0.70;67.38;98295.28;6039869;23;20022;-80
2021/12/08 03:57:55;;;;;;;89.60;31.15;;;-0.60;99.90;;;-0.75;67.42;98284.44;6038505;23;20554;-80
2021/12/08 04:00:24;;;;;;;75.82;26.58;;;-0.60;99.90;;;-0.76;67.27;98290.00;6039153;23;20419;-80
2021/12/08 04:02:50;;;;;;;81.55;25.98;;;-0.60;99.90;;;-0.80;67.88;98281.59;6063434;23;20015;-80
2021/12/08 04:05:22;;;;;;;78.70;28.08;;;-0.70;99.90;;;-0.78;67.89;98287.53;6039128;23;20029;-81
2021/12/08 04:07:51;;;;;;;93.65;31.92;;;-0.70;99.90;;;-0.76;67.83;98266.84;6049698;23;20475;-80
2021/12/08 04:10:18;;;;;;;82.75;27.65;;;-0.60;99.90;;;-0.71;67.75;98261.69;6039175;23;20055;-80
2021/12/08 04:12:51;;;;;;;76.75;26.75;;;-0.60;99.90;;;-0.69;67.99;98251.66;6039324;23;20022;-81
2021/12/08 04:15:18;;;;;;;75.70;27.50;;;-0.60;99.90;;;-0.69;68.11;98261.47;6048737;23;20447;-80
2021/12/08 04:17:46;;;;;;;73.80;27.23;;;-0.60;99.90;;;-0.67;67.92;98259.41;6064115;23;20412;-80
2021/12/08 04:20:18;;;;;;;96.63;32.47;;;-0.60;99.90;;;-0.62;68.10;98269.41;6015393;23;20114;-80
2021/12/08 04:22:48;;;;;;;89.07;29.65;;;-0.60;99.90;;;-0.66;67.89;98285.03;6071444;23;20043;-80
2021/12/08 04:25:25;;;;;;;85.75;26.52;;;-0.60;99.90;;;-0.68;67.76;98285.22;6037104;23;20027;-80
2021/12/08 04:27:53;;;;;;;91.75;31.60;;;-0.60;99.90;;;-0.71;67.91;98283.00;6039756;23;20071;-80
2021/12/08 04:30:42;;;;;;;80.35;27.13;;;-0.60;99.90;;;-0.70;67.57;98278.47;6039456;23;20041;-80
2021/12/08 04:33:09;;;;;;;80.57;30.10;;;-0.60;99.90;;;-0.77;67.97;98281.16;6048853;23;20432;-79
2021/12/08 04:35:36;;;;;;;88.38;26.77;;;-0.60;99.90;;;-0.74;68.11;98286.09;6038374;23;20026;-80
2021/12/08 04:38:08;;;;;;;82.75;27.33;;;-0.70;99.90;;;-0.76;67.99;98296.13;6038480;23;20019;-80
2021/12/08 04:40:57;;;;;;;96.28;29.92;;;-0.70;99.90;;;-0.78;67.87;98300.84;6052258;23;20023;-81
2021/12/08 04:43:37;;;;;;;91.72;33.83;;;-0.70;99.90;;;-0.83;67.84;98306.00;6050953;23;20043;-80
2021/12/08 05:09:54;;;;;;;78.95;27.58;;;-0.70;99.90;;;-0.88;67.81;98319.94;6041823;23;20517;-81
2021/12/08 05:12:26;;;;;;;80.65;27.42;;;-0.70;99.90;;;-0.84;67.81;98322.19;6017026;23;20023;-80
2021/12/08 05:15:29;;;;;;;79.82;29.45;;;-0.80;99.90;;;-0.79;67.67;98325.03;6074275;23;20227;-80
2021/12/08 05:18:17;;;;;;;81.88;28.45;;;-0.80;99.90;;;-0.80;67.86;98316.22;6038169;23;20027;-80
2021/12/08 05:21:03;;;;;;;91.25;30.38;;;-0.70;99.90;;;-0.82;67.67;98315.63;6042294;23;20102;-80
2021/12/08 05:23:35;;;;;;;83.70;30.75;;;-0.80;99.90;;;-0.77;66.95;98307.00;6052721;23;20019;-80
2021/12/08 05:26:12;;;;;;;89.30;31.73;;;-0.70;99.90;;;-0.80;66.62;98302.91;6073913;23;20386;-81
2021/12/08 05:28:38;;;;;;;89.72;33.65;;;-0.70;99.90;;;-0.89;67.09;98294.38;6050880;23;20037;-80
2021/12/08 05:31:11;;;;;;;98.78;33.83;;;-0.70;99.90;;;-0.86;67.27;98285.13;6041295;23;20058;-81
2021/12/08 05:33:39;;;;;;;80.55;29.45;;;-0.80;99.90;;;-0.89;67.57;98288.19;6051013;23;20023;-81
2021/12/08 05:36:05;;;;;;;81.55;29.70;;;-0.80;99.90;;;-0.90;67.50;98291.91;6065235;23;20071;-80
2021/12/08 05:38:31;;;;;;;91.15;28.13;;;-0.70;99.90;;;-0.86;67.51;98292.31;6040411;23;20105;-80
2021/12/08 05:41:19;;;;;;;89.25;28.13;;;-0.80;99.90;;;-0.89;67.18;98293.53;6040940;23;20462;-80
2021/12/08 05:43:45;;;;;;;88.70;29.20;;;-0.80;99.90;;;-0.94;67.83;98293.34;6074228;23;20057;-80
2021/12/08 05:46:11;;;;;;;88.80;30.88;;;-0.80;99.90;;;-0.86;67.33;98294.97;6017619;23;20043;-78
2021/12/08 05:48:38;;;;;;;73.47;27.00;;;-0.80;99.90;;;-0.73;66.72;98290.38;6044286;23;20018;-78
2021/12/08 05:51:11;;;;;;;74.43;27.35;;;-0.80;99.90;;;-0.64;66.67;98290.94;6044121;23;20018;-78
2021/12/08 05:53:39;;;;;;;73.93;27.55;;;-0.70;99.90;;;-0.62;66.66;98280.06;6053713;23;20041;-78
2021/12/08 05:56:05;;;;;;;77.60;27.23;;;-0.60;99.90;;;-0.65;66.30;98283.97;6068308;23;20019;-78
2021/12/08 05:58:31;;;;;;;87.18;30.08;;;-0.60;99.90;;;-0.64;66.31;98287.47;6044136;23;20022;-78
2021/12/08 06:01:35;;;;;;;75.65;30.42;;;-0.60;99.90;;;-0.72;66.07;98284.00;6068457;23;20018;-78
2021/12/08 06:04:03;;;;;;;85.93;27.42;;;-0.60;99.90;;;-0.71;66.27;98279.53;6042831;23;20058;-78
2021/12/08 06:06:29;;;;;;;60.08;25.40;;;-0.60;99.90;;;-0.69;66.22;98280.94;6044251;23;20030;-78
2021/12/08 06:08:56;;;;;;;77.95;27.08;;;-0.60;99.90;;;-0.73;65.93;98287.72;6019804;23;20093;-78
2021/12/08 06:11:24;;;;;;;73.93;27.88;;;-0.70;99.90;;;-0.69;65.69;98274.78;6042665;23;20050;-78
2021/12/08 06:13:50;;;;;;;76.93;28.58;;;-0.60;99.90;;;-0.73;66.18;98282.38;6043966;23;20392;-78
2021/12/08 06:16:18;;;;;;;79.10;29.60;;;-0.60;99.90;;;-0.73;66.31;98270.94;6091238;23;20029;-78
2021/12/08 06:18:44;;;;;;;76.60;30.70;;;-0.60;99.90;;;-0.68;66.21;98261.25;6067190;23;20367;-78
2021/12/08 06:21:16;;;;;;;87.60;31.02;;;-0.70;99.90;;;-0.65;65.92;98262.69;6041431;23;20023;-78
2021/12/08 06:23:45;;;;;;;77.78;31.67;;;-0.60;99.90;;;-0.62;66.30;98256.91;6052901;23;20015;-78
2021/12/08 06:26:13;;;;;;;80.03;30.85;;;-0.60;99.90;;;-0.58;65.69;98241.34;6089976;23;20363;-78
2021/12/08 06:28:39;;;;;;;77.32;28.05;;;-0.60;99.90;;;-0.62;66.00;98248.91;6066330;23;20482;-78
2021/12/08 06:31:06;;;;;;;82.45;29.25;;;-0.60;99.90;;;-0.60;65.86;98251.38;6041828;23;20491;-78
2021/12/08 06:33:33;;;;;;;78.90;30.50;;;-0.60;99.90;;;-0.54;65.42;98258.50;6041267;23;20342;-78
2021/12/08 06:36:05;;;;;;;83.75;28.50;;;-0.60;99.90;;;-0.52;65.65;98267.91;6042318;23;20031;-78
2021/12/08 06:38:31;;;;;;;84.50;31.65;;;-0.50;99.90;;;-0.54;65.55;98255.84;6042631;23;20470;-78
2021/12/08 06:41:05;;;;;;;86.57;31.08;;;-0.50;99.90;;;-0.50;64.96;98262.38;6041072;23;20019;-78
2021/12/08 06:43:36;;;;;;;84.65;30.15;;;-0.50;99.90;;;-0.52;64.83;98259.09;6051823;23;20042;-78
2021/12/08 06:46:02;;;;;;;75.40;30.38;;;-0.40;99.90;;;-0.54;64.76;98247.84;6041984;23;20019;-78
2021/12/08 06:48:39;;;;;;;74.75;30.15;;;-0.50;99.90;;;-0.53;64.78;98255.63;6039846;23;20074;-78
2021/12/08 06:51:25;;;;;;;72.65;28.98;;;-0.40;99.90;;;-0.53;64.89;98249.50;6051268;23;20027;-78
2021/12/08 06:53:55;;;;;;;76.18;28.27;;;-0.40;99.90;;;-0.47;64.68;98243.28;6073620;23;20025;-78
2021/12/08 06:56:29;;;;;;;63.75;26.88;;;-0.50;99.90;;;-0.40;64.59;98244.06;6051043;23;20018;-78
2021/12/08 06:58:58;;;;;;;60.10;26.13;;;-0.40;99.90;;;-0.39;63.48;98253.69;6039792;23;20018;-78
2021/12/08 07:01:59;;;;;;;74.13;27.52;;;-0.30;99.90;;;-0.38;63.69;98252.66;6040962;23;20485;-78
2021/12/08 07:04:33;;;;;;;64.95;26.55;;;-0.40;99.90;;;-0.42;62.92;98251.44;6063602;23;20139;-78
2021/12/08 07:07:16;;;;;;;62.55;25.98;;;-0.20;99.90;;;-0.40;63.16;98260.06;6073672;23;20033;-78
2021/12/08 07:09:55;;;;;;;64.15;26.25;;;-0.30;99.90;;;-0.35;62.85;98257.56;6051246;23;20022;-78
2021/12/08 07:12:35;;;;;;;72.68;29.73;;;-0.40;99.90;;;-0.29;62.92;98261.19;6027061;23;20387;-78
2021/12/08 07:15:14;;;;;;;79.55;32.17;;;-0.20;99.90;;;-0.31;63.07;98255.25;6050244;23;20022;-78
2021/12/08 07:17:43;;;;;;;72.18;27.95;;;-0.20;99.90;;;-0.29;63.00;98245.22;6041002;23;20019;-78
2021/12/08 07:22:59;;;;;;;77.47;27.13;;;-0.20;99.90;;;-0.14;61.99;98234.22;6043253;23;20027;-78
2021/12/08 07:25:27;;;;;;;66.22;25.15;;;-0.10;99.90;;;-0.13;61.78;98235.84;6039757;23;20019;-78
2021/12/08 07:27:53;;;;;;;41.97;19.50;;;0.00;99.90;;;-0.08;60.93;98230.66;6015909;23;20026;-78
2021/12/08 07:30:29;;;;;;;51.88;22.13;;;0.00;99.90;;;-0.11;61.11;98231.94;6039447;23;20455;-78
2021/12/08 07:32:55;;;;;;;64.22;21.48;;;0.10;99.90;;;-0.11;60.97;98231.13;6072491;23;20023;-78
2021/12/08 07:35:32;;;;;;;54.97;21.42;;;0.10;99.90;;;-0.01;60.89;98226.91;6039227;23;20015;-78
2021/12/08 07:37:59;;;;;;;57.85;25.08;;;0.00;99.90;;;-0.01;61.46;98226.91;6018015;23;20470;-78
2021/12/08 07:40:40;;;;;;;63.60;24.42;;;0.10;99.90;;;0.11;60.81;98234.22;6039175;23;20025;-78
2021/12/08 07:43:13;;;;;;;62.08;23.40;;;0.10;99.90;;;0.13;60.99;98232.94;6072378;23;20620;-78
2021/12/08 07:45:50;;;;;;;59.67;23.55;;;0.10;99.90;;;0.07;60.16;98230.34;6038041;23;20023;-78
2021/12/08 07:48:24;;;;;;;69.68;22.13;;;0.30;99.90;;;0.04;60.85;98242.25;6047101;23;20025;-77
2021/12/08 07:51:00;;;;;;;55.00;20.67;;;0.20;99.90;;;0.01;60.22;98244.56;6047673;23;20064;-78
2021/12/08 07:53:27;;;;;;;59.08;24.35;;;0.20;99.90;;;-0.04;60.04;98250.53;6048979;23;20018;-78
2021/12/08 07:55:58;;;;;;;56.08;23.10;;;0.20;99.90;;;-0.06;60.39;98253.41;6036963;23;20051;-77
2021/12/08 07:58:24;;;;;;;67.68;24.88;;;0.10;99.90;;;-0.08;60.13;98252.81;6047153;23;20018;-78
2021/12/08 08:01:05;;;;;;;57.95;23.25;;;0.10;99.90;;;-0.01;60.16;98242.09;6035484;23;20119;-78
2021/12/08 08:03:32;;;;;;;61.13;23.77;;;0.10;99.90;;;0.03;60.47;98248.63;6049033;23;20054;-78
2021/12/08 08:06:00;;;;;;;54.00;22.45;;;0.10;99.90;;;0.06;59.91;98236.72;6039316;23;20023;-78
2021/12/08 08:08:30;;;;;;;58.95;22.85;;;0.20;99.90;;;0.05;59.67;98251.91;6037463;23;20023;-78
2021/12/08 08:11:11;;;;;;;66.70;23.08;;;0.20;99.90;;;0.09;59.98;98252.28;6071192;23;20125;-77
2021/12/08 08:13:40;;;;;;;53.55;21.85;;;0.20;99.90;;;0.13;59.72;98258.81;6050909;23;20090;-78
2021/12/08 08:16:13;;;;;;;56.53;22.52;;;0.20;99.90;;;0.16;59.56;98255.69;6038606;23;20042;-78
2021/12/08 08:18:45;;;;;;;65.15;24.00;;;0.30;99.90;;;0.13;59.76;98261.47;6038752;23;20345;-78
2021/12/08 08:21:15;;;;;;;;;;;0.30;99.90;;;0.17;59.56;98260.78;6072312;23;20062;-78
2021/12/08 08:23:41;;;;;;;61.85;22.00;;;0.30;99.90;;;0.32;59.24;98262.31;6038762;23;19921;-78
2021/12/08 08:26:08;;;;;;;60.97;23.67;;;0.40;99.90;;;0.33;59.21;98262.09;6015416;23;20018;-78
2021/12/08 08:28:34;;;;;;;66.03;23.92;;;0.50;99.90;;;0.34;58.94;98265.56;6038831;23;20023;-78
2021/12/08 08:31:11;;;;;;;58.55;24.52;;;0.60;99.90;;;0.40;58.89;98268.16;6038189;23;20089;-78
2021/12/08 08:33:39;;;;;;;61.83;25.75;;;0.60;99.90;;;0.58;58.47;98258.53;6023953;23;20045;-78
2021/12/08 08:36:13;;;;;;;67.72;25.67;;;0.60;99.90;;;0.63;58.19;98254.16;6061145;23;20066;-78
2021/12/08 08:38:56;;;;;;;67.22;24.38;;;0.70;99.90;;;0.61;58.13;98252.75;6016300;23;20097;-78
2021/12/08 08:41:48;;;;;;;58.25;24.25;;;0.80;99.90;;;0.70;58.39;98247.94;6071836;23;20086;-78
2021/12/08 08:44:22;;;;;;;58.80;25.27;;;0.80;99.90;;;0.81;57.96;98244.50;6062504;23;20110;-79
2021/12/08 08:46:49;;;;;;;64.35;26.20;;;0.90;99.90;;;0.81;57.70;98253.34;6048762;23;20051;-78
2021/12/08 08:49:19;;;;;;;53.58;23.15;;;1.00;99.90;;;0.82;57.59;98254.97;6038592;23;20539;-78
2021/12/08 08:51:51;;;;;;;57.07;23.43;;;1.10;99.90;;;0.78;57.48;98239.63;6048189;23;20081;-78
2021/12/08 08:54:21;;;;;;;;;;;1.10;99.90;;;0.76;57.83;98241.69;6024989;23;20326;-78
2021/12/08 08:57:14;;;;;;;51.40;21.30;;;1.10;99.90;;;0.84;57.23;98255.56;6038290;23;19922;-78
2021/12/08 08:59:46;;;;;;;48.85;22.63;;;1.20;99.90;;;0.84;57.34;98249.41;6095910;23;20070;-78
2021/12/08 09:02:25;;;;;;;60.20;24.83;;;1.20;99.90;;;0.90;57.36;98253.06;6038861;23;20029;-78
2021/12/08 09:05:00;;;;;;;58.03;23.65;;;1.10;99.90;;;0.85;56.63;98246.50;6048146;23;20067;-78
2021/12/08 09:07:36;;;;;;;52.08;23.48;;;1.20;99.90;;;0.80;57.25;98256.25;6047563;23;20022;-78
2021/12/08 09:10:26;;;;;;;71.18;25.65;;;1.10;99.90;;;0.80;57.74;98248.22;6039003;23;20109;-78
2021/12/08 09:12:56;;;;;;;59.78;24.35;;;1.10;99.90;;;0.81;57.65;98242.66;6041785;23;20492;-78
2021/12/08 09:15:42;;;;;;;63.75;25.23;;;1.10;99.90;;;0.79;58.11;98239.41;6027451;23;20173;-78
2021/12/08 09:18:11;;;;;;;49.30;21.30;;;1.00;99.90;;;0.82;57.37;98227.47;6027871;23;20086;-78
2021/12/08 09:21:09;;;;;;;64.78;28.38;;;1.00;99.90;;;0.77;58.41;98232.66;6041076;23;20596;-78
2021/12/08 09:23:45;;;;;;;65.80;23.90;;;1.00;99.90;;;0.78;58.30;98240.44;6056654;23;20015;-78
2021/12/08 09:26:14;;;;;;;55.47;25.33;;;1.00;99.90;;;0.77;58.18;98232.66;6077084;23;20098;-78
2021/12/08 09:29:06;;;;;;;72.57;30.33;;;1.00;99.90;;;0.82;57.70;98222.13;6018566;23;20034;-78
2021/12/08 09:31:44;;;;;;;57.70;22.42;;;1.00;99.90;;;0.78;57.75;98218.28;6054675;23;20467;-78
2021/12/08 09:34:22;;;;;;;53.35;24.40;;;1.00;99.90;;;0.69;58.00;98227.63;6052937;23;20041;-78
2021/12/08 09:37:00;;;;;;;52.08;21.33;;;1.00;99.90;;;0.64;57.83;98231.78;6044657;23;20090;-78
2021/12/08 09:39:55;;;;;;;50.10;22.38;;;0.90;99.90;;;0.64;57.82;98229.13;6074552;23;20026;-78
2021/12/08 09:42:39;;;;;;;64.45;25.58;;;0.90;99.90;;;0.57;58.25;98223.03;6042307;23;20097;-78
2021/12/08 09:45:19;;;;;;;54.65;23.38;;;0.90;99.90;;;0.57;58.13;98232.91;6042848;23;20442;-78
2021/12/08 09:47:45;;;;;;;59.67;25.38;;;0.90;99.90;;;0.51;58.35;98234.63;6054490;23;20094;-78
2021/12/08 09:50:12;;;;;;;59.10;23.23;;;0.90;99.90;;;0.52;59.00;98232.75;6019115;23;20473;-78
2021/12/08 09:52:40;;;;;;;56.40;24.63;;;0.80;99.90;;;0.56;58.59;98224.09;6067623;23;20070;-78
2021/12/08 09:55:09;;;;;;;54.38;25.33;;;0.90;99.90;;;0.55;58.70;98219.75;6043502;23;20411;-78
2021/12/08 09:57:35;;;;;;;58.55;24.65;;;0.90;99.90;;;0.62;58.96;98217.84;6042387;23;20014;-78
2021/12/08 10:00:00;;;;;;;63.08;24.92;;;0.80;99.90;;;0.71;58.86;98217.53;6067783;23;20372;-78
2021/12/08 10:02:30;;;;;;;54.22;26.75;;;0.90;99.90;;;0.69;58.82;98222.28;6015970;23;20039;-78
2021/12/08 10:04:58;;;;;;;65.55;24.15;;;0.90;99.90;;;0.68;58.34;98221.47;6039403;23;20430;-78
2021/12/08 10:07:25;;;;;;;60.83;26.02;;;0.90;99.90;;;0.58;58.97;98213.16;6063536;23;20450;-78
2021/12/08 10:09:51;;;;;;;62.78;26.67;;;0.80;99.90;;;0.53;58.61;98210.34;6065267;23;20023;-79
2021/12/08 10:12:20;;;;;;;57.10;26.50;;;0.90;99.90;;;0.56;59.05;98212.56;6042500;23;20118;-78
2021/12/08 10:14:46;;;;;;;81.28;34.22;;;0.80;99.90;;;0.67;59.11;98208.34;6042463;23;20030;-79
2021/12/08 10:17:14;;;;;;;124.40;50.55;;;0.70;99.90;;;0.70;59.03;98200.69;6066398;23;20046;-79
2021/12/08 10:19:41;;;;;;;80.18;33.60;;;0.90;99.90;;;0.75;59.08;98197.38;6018948;23;20106;-78
2021/12/08 10:22:21;;;;;;;98.93;45.25;;;0.90;99.90;;;0.74;59.23;98179.69;6019102;23;20075;-78
2021/12/08 10:25:17;;;;;;;69.68;29.30;;;1.00;99.90;;;0.76;58.82;98190.97;6052324;23;20343;-79
2021/12/08 10:28:04;;;;;;;61.28;24.38;;;1.10;99.90;;;0.66;59.28;98204.84;6079058;23;20047;-80
2021/12/08 10:30:30;;;;;;;70.82;29.25;;;0.90;99.90;;;0.65;59.55;98204.03;6067967;23;20472;-78
2021/12/08 10:32:56;;;;;;;64.68;24.92;;;1.00;99.90;;;0.62;59.59;98198.34;6020126;23;20454;-78
2021/12/08 10:35:46;;;;;;;64.47;26.83;;;0.90;99.90;;;0.47;59.45;98201.41;6067986;23;20378;-78
2021/12/08 10:38:15;;;;;;;67.13;27.42;;;0.90;99.90;;;0.39;60.42;98193.69;6041885;23;20665;-78
2021/12/08 10:41:00;;;;;;;80.90;34.20;;;0.70;99.90;;;0.42;60.68;98190.56;6040255;23;20046;-78
2021/12/08 10:43:27;;;;;;;66.20;28.38;;;0.70;99.90;;;0.47;60.15;98185.38;6073932;23;20022;-79
2021/12/08 10:46:03;;;;;;;69.07;30.73;;;0.60;99.90;;;0.58;60.88;98192.63;6064340;23;20015;-78
2021/12/08 10:48:36;;;;;;;76.25;29.42;;;0.70;99.90;;;0.60;60.38;98187.06;6041309;23;20030;-78
2021/12/08 10:56:39;;;;;;;73.00;27.13;;;0.80;99.90;;;0.68;59.89;98165.41;6052046;23;20066;-78
2021/12/08 10:59:05;;;;;;;84.47;34.60;;;0.80;99.90;;;0.64;60.45;98162.38;6039387;23;20138;-78
2021/12/08 11:01:30;;;;;;;117.93;43.35;;;0.70;99.90;;;0.63;60.25;98158.06;6039045;23;20019;-78
2021/12/08 11:04:06;;;;;;;101.38;42.38;;;0.80;99.90;;;0.59;60.27;98164.91;6011558;23;20046;-78
2021/12/08 11:06:34;;;;;;;81.88;32.45;;;0.80;99.90;;;0.53;60.55;98163.13;6036772;23;20133;-78
2021/12/08 11:09:00;;;;;;;89.28;33.33;;;0.80;99.90;;;0.40;60.85;98163.28;6037413;23;20050;-78
2021/12/08 11:11:32;;;;;;;88.88;33.78;;;0.70;99.90;;;0.39;61.23;98165.16;6036755;23;20458;-78
2021/12/08 11:14:01;;;;;;;90.35;35.90;;;0.50;99.90;;;0.35;61.65;98163.16;6048059;23;20022;-78
2021/12/08 11:16:35;;;;;;;143.93;64.68;;;0.50;99.90;;;0.41;61.61;98151.59;6036125;23;20019;-78
2021/12/08 11:19:11;;;;;;;107.43;43.10;;;0.60;99.90;;;0.50;61.14;98155.56;6024194;23;20023;-78
2021/12/08 11:22:03;;;;;;;121.97;53.10;;;0.50;99.90;;;0.49;61.35;98150.47;6046721;23;20403;-78